Time;durP1;ratioP1;P1;durP2;ratioP2;P2;SDS_P1;SDS_P2;PMS_P1;PMS_P2;Temp;Humidity;BMP_temperature;BMP_pressure;BME280_temperature;BME280_humidity;BME280_pressure;Samples;Min_cycle;Max_cycle;Signal;HPM_P1;HPM_P2
2023/05/24 00:22:01;;;;;;;20.80;16.30;;;;;;;15.67;100.00;100525.18;106085;1282;599343;-89
2023/05/24 00:24:29;;;;;;;17.50;15.90;;;;;;;15.66;100.00;100524.70;105678;1267;61315;-92
2023/05/24 00:26:57;;;;;;;21.80;17.30;;;;;;;15.67;100.00;100528.31;107472;1265;59144;-93
2023/05/24 00:29:27;;;;;;;19.80;16.70;;;;;;;15.69;100.00;100532.75;107757;1266;71829;-91
2023/05/24 00:32:00;;;;;;;21.30;16.70;;;;;;;15.71;100.00;100535.44;108792;1267;61638;-91
2023/05/24 00:34:29;;;;;;;22.10;17.10;;;;;;;15.71;100.00;100534.38;108148;1266;835923;-89
2023/05/24 00:36:57;;;;;;;21.30;16.90;;;;;;;15.70;100.00;100532.34;106522;1262;60865;-90
2023/05/24 00:39:26;;;;;;;20.10;16.70;;;;;;;15.68;100.00;100537.45;106163;1263;59339;-94
2023/05/24 00:41:53;;;;;;;19.40;15.60;;;;;;;15.65;100.00;100533.11;106173;1263;71108;-92
2023/05/24 00:44:21;;;;;;;18.90;16.50;;;;;;;15.62;100.00;100537.09;106859;1263;65691;-91
2023/05/24 00:46:49;;;;;;;18.60;15.30;;;;;;;15.59;100.00;100537.65;107093;1267;71591;-91
2023/05/24 00:49:19;;;;;;;18.70;15.40;;;;;;;15.55;100.00;100537.45;106815;1263;59891;-92
2023/05/24 00:51:49;;;;;;;19.70;16.50;;;;;;;15.56;100.00;100539.45;106315;1256;59593;-93
2023/05/24 00:54:17;;;;;;;23.60;16.30;;;;;;;15.56;100.00;100538.27;106197;1257;74410;-94
2023/05/24 00:56:45;;;;;;;20.60;14.70;;;;;;;15.55;100.00;100535.52;106262;1257;62439;-92
2023/05/24 00:59:13;;;;;;;18.10;15.40;;;;;;;15.54;100.00;100536.61;106207;1258;71764;-96
2023/05/24 01:01:41;;;;;;;17.80;15.60;;;;;;;15.54;100.00;100542.26;106405;1256;60481;-96
2023/05/24 01:04:09;;;;;;;19.80;16.10;;;;;;;15.53;100.00;100539.20;106526;1256;60629;-95
2023/05/24 01:06:50;;;;;;;19.20;15.00;;;;;;;15.50;100.00;100533.95;107383;1256;72017;-91
2023/05/24 01:09:29;;;;;;;18.10;15.60;;;;;;;15.46;100.00;100533.21;109068;1256;64643;-90
2023/05/24 01:12:41;;;;;;;22.50;18.70;;;;;;;15.49;100.00;100536.94;109207;1255;72611;-90
2023/05/24 01:15:39;;;;;;;30.70;20.60;;;;;;;15.50;100.00;100538.95;108508;1256;62253;-92
2023/05/24 01:18:14;;;;;;;22.50;16.90;;;;;;;15.52;100.00;100538.25;107436;1251;60720;-93
2023/05/24 01:20:42;;;;;;;27.40;18.80;;;;;;;15.53;100.00;100541.86;107021;1251;71872;-94
2023/05/24 01:23:40;;;;;;;29.30;18.90;;;;;;;15.56;100.00;100542.12;106986;1251;63753;-94
2023/05/24 01:26:38;;;;;;;25.90;20.90;;;;;;;15.59;100.00;100538.38;106475;1259;71461;-90
2023/05/24 01:29:06;;;;;;;32.60;21.00;;;;;;;15.62;100.00;100533.88;106288;1257;60849;-94
2023/05/24 01:31:34;;;;;;;32.30;20.90;;;;;;;15.65;100.00;100532.81;106907;1257;60712;-94
2023/05/24 01:34:03;;;;;;;27.30;20.30;;;;;;;15.65;100.00;100532.07;107073;1261;72038;-93
2023/05/24 01:36:32;;;;;;;26.50;19.60;;;;;;;15.65;100.00;100531.02;106796;1256;63964;-92
2023/05/24 01:38:59;;;;;;;29.00;21.80;;;;;;;15.65;100.00;100525.55;106823;1263;70830;-94
2023/05/24 01:41:38;;;;;;;26.80;20.20;;;;;;;15.68;100.00;100532.29;107175;1257;60357;-92
2023/05/24 01:44:22;;;;;;;28.30;21.20;;;;;;;15.71;100.00;100532.83;107067;1257;60146;-92
2023/05/24 01:46:57;;;;;;;34.10;23.00;;;;;;;15.72;100.00;100531.69;106948;1257;73239;-92
2023/05/24 01:49:28;;;;;;;36.40;22.00;;;;;;;15.72;100.00;100525.65;106197;1257;62452;-91
2023/05/24 01:52:12;;;;;;;40.50;23.60;;;;;;;15.73;100.00;100521.87;106172;1257;71531;-94
2023/05/24 01:54:42;;;;;;;39.90;22.30;;;;;;;15.74;100.00;100521.48;107688;1257;61991;-92
2023/05/24 01:57:10;;;;;;;38.80;22.50;;;;;;;15.75;100.00;100524.22;107266;1258;59690;-94
2023/05/24 01:59:39;;;;;;;39.10;23.20;;;;;;;15.75;100.00;100523.83;107482;1257;71819;-92
2023/05/24 02:02:08;;;;;;;36.50;22.60;;;;;;;15.75;100.00;100524.16;108669;1260;63052;-92
2023/05/24 02:04:36;;;;;;;30.00;20.50;;;;;;;15.74;100.00;100522.52;106984;1254;71587;-93
2023/05/24 02:07:05;;;;;;;35.70;21.50;;;;;;;15.78;100.00;100529.62;106620;1259;62496;-94
2023/05/24 02:09:33;;;;;;;38.10;20.60;;;;;;;15.79;100.00;100536.02;106999;1252;59643;-92
2023/05/24 02:12:01;;;;;;;32.90;19.50;;;;;;;15.78;100.00;100533.70;106839;1254;71794;-93
2023/05/24 02:14:29;;;;;;;33.30;20.90;;;;;;;15.80;100.00;100536.02;107209;1254;63755;-93
2023/05/24 02:16:59;;;;;;;29.10;19.40;;;;;;;15.78;100.00;100537.04;107012;1253;71509;-93
2023/05/24 02:19:28;;;;;;;42.90;21.10;;;;;;;15.76;100.00;100535.25;106616;1254;60271;-94
2023/05/24 02:21:56;;;;;;;37.00;23.30;;;;;;;15.73;100.00;100533.00;106606;1253;59874;-93
2023/05/24 02:24:25;;;;;;;43.90;23.40;;;;;;;15.73;100.00;100532.99;106860;1257;73176;-93
2023/05/24 02:26:54;;;;;;;36.70;22.90;;;;;;;15.73;100.00;100527.85;106812;1254;63646;-93
2023/05/24 02:29:22;;;;;;;38.70;22.30;;;;;;;15.73;100.00;100534.05;106655;1254;72963;-93
2023/05/24 02:31:55;;;;;;;36.70;22.20;;;;;;;15.72;100.00;100538.73;106750;1253;62787;-93
2023/05/24 02:34:24;;;;;;;;;;;;;;;15.70;100.00;100535.90;107155;1258;61495;-91
2023/05/24 02:36:55;;;;;;;46.80;21.40;;;;;;;15.73;100.00;100543.92;108221;1252;73111;-95
2023/05/24 02:39:23;;;;;;;47.70;24.10;;;;;;;15.73;100.00;100540.80;107046;1254;63203;-92
2023/05/24 02:41:51;;;;;;;41.40;22.00;;;;;;;15.74;100.00;100549.82;106990;1254;71494;-93
2023/05/24 02:44:18;;;;;;;40.00;24.10;;;;;;;15.75;100.00;100559.79;106986;1259;60784;-92
2023/05/24 02:46:46;;;;;;;41.60;23.20;;;;;;;15.78;100.00;100564.89;106354;1259;60036;-96
2023/05/24 02:49:14;;;;;;;58.70;24.20;;;;;;;15.80;100.00;100567.52;107071;1260;71885;-90
2023/05/24 02:51:45;;;;;;;49.70;25.40;;;;;;;15.82;100.00;100570.89;108573;1254;62746;-91
2023/05/24 02:54:13;;;;;;;51.20;25.70;;;;;;;15.84;100.00;100570.86;108321;1252;71290;-93
2023/05/24 02:56:40;;;;;;;44.30;24.60;;;;;;;15.86;100.00;100568.42;107819;1252;60552;-91
2023/05/24 02:59:08;;;;;;;55.00;24.60;;;;;;;15.87;100.00;100577.00;107389;1259;61433;-93
2023/05/24 03:01:36;;;;;;;37.60;24.50;;;;;;;15.90;100.00;100582.76;107243;1254;73247;-94
2023/05/24 03:04:06;;;;;;;35.00;24.30;;;;;;;15.91;100.00;100587.77;107792;1255;63819;-92
2023/05/24 03:06:36;;;;;;;34.30;23.90;;;;;;;15.91;100.00;100584.88;108936;1254;71397;-92
2023/05/24 03:09:04;;;;;;;44.10;25.40;;;;;;;15.94;100.00;100593.70;109732;1254;60805;-91
2023/05/24 03:11:33;;;;;;;51.90;25.50;;;;;;;15.96;100.00;100590.38;108212;1254;59087;-91
2023/05/24 03:14:01;;;;;;;52.30;25.70;;;;;;;16.00;100.00;100593.25;107270;1252;73322;-92
2023/05/24 03:16:28;;;;;;;50.80;24.50;;;;;;;16.01;100.00;100590.09;107426;1259;61634;-91
2023/05/24 03:18:58;;;;;;;48.40;26.20;;;;;;;16.02;100.00;100589.45;108609;1252;73746;-92
2023/05/24 03:21:27;;;;;;;47.40;23.70;;;;;;;16.06;100.00;100591.79;108359;1254;62496;-93
2023/05/24 03:23:56;;;;;;;44.10;24.80;;;;;;;16.08;100.00;100592.16;107950;1254;59502;-91
2023/05/24 03:26:25;;;;;;;59.80;26.00;;;;;;;16.11;100.00;100594.39;107991;1257;75215;-92
2023/05/24 03:28:55;;;;;;;34.50;24.70;;;;;;;16.13;100.00;100594.58;108033;1253;65081;-92
2023/05/24 03:31:27;;;;;;;42.20;26.50;;;;;;;16.16;100.00;100591.33;106521;1257;71495;-93
2023/05/24 03:33:55;;;;;;;39.30;27.70;;;;;;;16.18;100.00;100592.77;106270;1260;62921;-92
2023/05/24 03:36:25;;;;;;;33.90;25.30;;;;;;;16.19;100.00;100591.29;106523;1255;60710;-92
2023/05/24 03:38:54;;;;;;;49.30;27.30;;;;;;;16.23;100.00;100592.68;106793;1259;73047;-93
2023/05/24 03:41:40;;;;;;;41.10;26.20;;;;;;;16.25;100.00;100597.12;107648;1254;63272;-88
2023/05/24 03:44:10;;;;;;;40.70;25.80;;;;;;;16.27;100.00;100596.36;108552;1259;71203;-91
2023/05/24 03:46:38;;;;;;;47.80;25.20;;;;;;;16.30;100.00;100591.59;107411;1260;61288;-91
2023/05/24 03:49:06;;;;;;;38.10;26.20;;;;;;;16.32;100.00;100587.14;106180;1259;59522;-88
2023/05/24 03:51:35;;;;;;;33.90;24.50;;;;;;;16.35;100.00;100588.66;106099;1254;73144;-92
2023/05/24 03:54:03;;;;;;;39.00;27.90;;;;;;;16.37;100.00;100589.35;106101;1259;63560;-87
2023/05/24 03:56:31;;;;;;;39.00;27.80;;;;;;;16.38;100.00;100594.38;106866;1254;71618;-89
2023/05/24 03:59:02;;;;;;;36.20;27.50;;;;;;;16.42;100.00;100590.90;106722;1260;60658;-89
2023/05/24 04:01:32;;;;;;;37.70;28.30;;;;;;;16.46;100.00;100592.65;107138;1254;61032;-90
2023/05/24 04:04:02;;;;;;;38.40;26.00;;;;;;;16.50;100.00;100596.52;107485;1254;71801;-91
2023/05/24 04:06:31;;;;;;;38.60;27.70;;;;;;;16.55;100.00;100594.54;107544;1254;64776;-90
2023/05/24 04:09:00;;;;;;;42.70;28.90;;;;;;;16.60;100.00;100589.71;107563;1260;72027;-91
2023/05/24 04:11:31;;;;;;;43.20;28.20;;;;;;;16.63;100.00;100582.20;107185;1252;59851;-92
2023/05/24 04:14:11;;;;;;;38.10;26.50;;;;;;;16.72;100.00;100585.70;106937;1254;59688;-91
2023/05/24 04:16:40;;;;;;;43.00;30.30;;;;;;;16.78;100.00;100584.31;106711;1260;73867;-91
2023/05/24 04:19:11;;;;;;;47.50;30.60;;;;;;;16.84;100.00;100578.95;106892;1254;64663;-90
2023/05/24 04:21:41;;;;;;;39.50;30.20;;;;;;;16.94;100.00;100578.14;106632;1259;72765;-90
2023/05/24 04:24:09;;;;;;;44.90;31.00;;;;;;;17.03;100.00;100578.10;106734;1254;62124;-90
2023/05/24 04:26:37;;;;;;;40.90;29.50;;;;;;;17.12;100.00;100585.20;107049;1260;59547;-90
2023/05/24 04:29:06;;;;;;;36.40;26.70;;;;;;;17.21;100.00;100589.70;106695;1262;75178;-89
2023/05/24 04:31:43;;;;;;;40.20;29.20;;;;;;;17.27;100.00;100592.20;107908;1256;64151;-89
2023/05/24 04:34:15;;;;;;;39.60;29.40;;;;;;;17.39;100.00;100595.52;107924;1254;73799;-94
2023/05/24 04:36:43;;;;;;;46.80;30.80;;;;;;;17.51;100.00;100590.77;107057;1259;60545;-90
2023/05/24 04:39:11;;;;;;;45.60;30.60;;;;;;;17.60;100.00;100583.81;106880;1254;60474;-91
2023/05/24 04:41:39;;;;;;;44.90;31.80;;;;;;;17.69;100.00;100584.53;108218;1253;72780;-91
2023/05/24 04:44:08;;;;;;;44.80;31.70;;;;;;;17.78;100.00;100581.45;107233;1260;62411;-94
2023/05/24 04:46:36;;;;;;;42.00;31.50;;;;;;;17.84;100.00;100583.71;107015;1253;74893;-92
2023/05/24 04:49:07;;;;;;;51.10;33.20;;;;;;;17.91;100.00;100590.39;107650;1259;63045;-94
2023/05/24 04:51:37;;;;;;;52.80;35.80;;;;;;;17.96;100.00;100586.96;107250;1259;60603;-93
2023/05/24 04:54:07;;;;;;;52.10;33.90;;;;;;;18.00;100.00;100588.45;107371;1254;74364;-94
2023/05/24 04:56:37;;;;;;;50.10;34.40;;;;;;;18.05;100.00;100593.54;107698;1258;63689;-95
2023/05/24 04:59:06;;;;;;;49.90;34.90;;;;;;;18.13;100.00;100596.34;106820;1260;72103;-92
2023/05/24 05:02:22;;;;;;;51.50;34.00;;;;;;;18.25;100.00;100601.95;107484;1254;63349;-92
2023/05/24 05:04:51;;;;;;;44.40;32.70;;;;;;;18.60;100.00;100601.84;106846;1260;60444;-91
2023/05/24 05:07:20;;;;;;;46.20;32.50;;;;;;;19.03;100.00;100595.10;106589;1260;73201;-93
2023/05/24 05:09:48;;;;;;;51.50;36.10;;;;;;;19.61;100.00;100598.20;106966;1253;64105;-93
2023/05/24 05:12:16;;;;;;;49.30;34.90;;;;;;;20.21;100.00;100597.05;107831;1253;72797;-95
2023/05/24 05:14:44;;;;;;;42.60;31.40;;;;;;;20.79;100.00;100597.70;107358;1254;60598;-94
2023/05/24 05:17:12;;;;;;;37.80;29.90;;;;;;;21.36;100.00;100602.23;109429;1252;59652;-89
2023/05/24 05:19:41;;;;;;;32.00;25.30;;;;;;;21.93;100.00;100605.73;107529;1253;73084;-91
2023/05/24 05:22:09;;;;;;;24.30;21.70;;;;;;;22.49;100.00;100606.13;109038;1254;65029;-90
2023/05/24 05:24:37;;;;;;;23.60;21.10;;;;;;;22.90;100.00;100606.85;109052;1258;71999;-92
2023/05/24 05:27:05;;;;;;;24.70;21.00;;;;;;;23.17;100.00;100609.21;107527;1254;63810;-92
2023/05/24 05:29:33;;;;;;;21.20;18.60;;;;;;;23.39;100.00;100612.59;106957;1255;60300;-93
2023/05/24 05:32:02;;;;;;;24.20;21.30;;;;;;;23.67;100.00;100610.75;107345;1255;73845;-92
2023/05/24 05:34:33;;;;;;;23.10;19.70;;;;;;;23.99;100.00;100613.13;108660;1254;63516;-93
2023/05/24 05:37:30;;;;;;;22.80;20.20;;;;;;;24.39;100.00;100618.67;108801;1254;72616;-93
2023/05/24 05:40:03;;;;;;;21.80;19.40;;;;;;;24.75;100.00;100617.63;108697;1253;61731;-94
2023/05/24 05:42:39;;;;;;;18.80;16.80;;;;;;;25.17;100.00;100622.36;108037;1254;60437;-92
2023/05/24 05:45:21;;;;;;;17.00;15.40;;;;;;;25.61;100.00;100623.69;108096;1253;76242;-92
2023/05/24 05:47:50;;;;;;;16.60;14.80;;;;;;;26.09;100.00;100624.17;107800;1254;64665;-94
2023/05/24 05:50:18;;;;;;;17.70;15.90;;;;;;;26.50;99.87;100619.67;108215;1253;71869;-94
2023/05/24 05:52:49;;;;;;;17.90;16.30;;;;;;;26.87;98.98;100620.03;108377;1257;60476;-94
2023/05/24 05:55:23;;;;;;;15.90;14.20;;;;;;;27.31;96.77;100618.98;108553;1253;61323;-91
2023/05/24 05:57:59;;;;;;;14.70;13.40;;;;;;;27.76;92.68;100615.38;109211;1256;72988;-93
2023/05/24 06:01:07;;;;;;;14.00;12.50;;;;;;;28.25;88.15;100619.23;108690;1256;63404;-92
2023/05/24 06:03:38;;;;;;;14.10;12.70;;;;;;;28.42;85.99;100616.23;107095;1256;72758;-91
2023/05/24 06:06:17;;;;;;;12.00;10.80;;;;;;;28.47;83.45;100614.79;107364;1256;59609;-93
2023/05/24 06:08:49;;;;;;;12.80;11.70;;;;;;;28.53;83.76;100614.34;107193;1257;60708;-93
2023/05/24 06:11:18;;;;;;;13.50;11.30;;;;;;;28.64;82.61;100618.05;107613;1256;73049;-90
2023/05/24 06:13:48;;;;;;;11.40;10.30;;;;;;;28.84;80.64;100623.45;108103;1256;62759;-91
2023/05/24 06:16:18;;;;;;;11.80;10.80;;;;;;;29.02;78.34;100621.09;108190;1256;71921;-92
2023/05/24 06:18:48;;;;;;;14.70;13.40;;;;;;;29.20;75.89;100625.83;108229;1260;59192;-93
2023/05/24 06:21:36;;;;;;;12.70;11.50;;;;;;;29.38;75.15;100625.33;109268;1258;59778;-93
2023/05/24 06:24:08;;;;;;;12.40;11.40;;;;;;;29.59;74.16;100623.05;108749;1259;72715;-94
2023/05/24 06:26:39;;;;;;;14.10;12.50;;;;;;;29.79;70.99;100623.42;107732;1259;63007;-94
2023/05/24 06:29:08;;;;;;;13.20;11.70;;;;;;;29.95;71.10;100626.81;107628;1258;73935;-94
2023/05/24 06:31:39;;;;;;;15.90;11.90;;;;;;;30.08;69.54;100626.38;108014;1258;60444;-95
2023/05/24 06:34:22;;;;;;;13.10;11.30;;;;;;;30.30;69.06;100627.42;107823;1261;59285;-91
2023/05/24 06:36:51;;;;;;;12.80;10.60;;;;;;;30.50;64.71;100625.72;107864;1261;73282;-93
2023/05/24 06:40:13;;;;;;;13.80;11.70;;;;;;;30.78;62.92;100620.03;108875;1260;62385;-92
2023/05/24 06:43:37;;;;;;;13.40;11.80;;;;;;;31.06;59.21;100620.59;108355;1261;75865;-92
2023/05/24 06:46:20;;;;;;;12.00;9.70;;;;;;;31.18;59.32;100619.41;108154;1261;61052;-92
2023/05/24 06:48:49;;;;;;;10.10;9.20;;;;;;;31.11;60.72;100618.61;108464;1262;59292;-92
2023/05/24 06:51:19;;;;;;;8.80;8.00;;;;;;;31.04;59.22;100620.11;108686;1259;73111;-94
2023/05/24 06:53:48;;;;;;;9.30;8.50;;;;;;;30.92;59.69;100621.55;108827;1259;62917;-93
2023/05/24 06:56:22;;;;;;;13.50;11.40;;;;;;;30.77;60.64;100620.86;109028;1259;74541;-94
2023/05/24 06:58:56;;;;;;;10.30;8.90;;;;;;;30.51;58.00;100625.17;108568;1259;58941;-91
2023/05/24 07:01:56;;;;;;;9.30;8.40;;;;;;;30.03;58.59;100623.95;108345;1258;60520;-94
2023/05/24 07:04:52;;;;;;;8.90;8.10;;;;;;;29.65;61.39;100621.73;107955;1260;74432;-92
2023/05/24 07:07:32;;;;;;;;;;;;;;;29.56;63.77;100616.98;107216;1260;62809;-93
2023/05/24 07:10:19;;;;;;;6.30;5.80;;;;;;;29.64;63.91;100614.94;107154;1260;72073;-93
2023/05/24 07:12:48;;;;;;;6.90;5.60;;;;;;;29.85;62.19;100615.07;107060;1257;62234;-91
2023/05/24 07:15:16;;;;;;;8.10;6.00;;;;;;;30.11;63.85;100613.00;107143;1256;60434;-90
2023/05/24 07:17:43;;;;;;;10.00;8.00;;;;;;;30.29;61.64;100610.69;107428;1256;73756;-91
2023/05/24 07:20:25;;;;;;;11.90;8.80;;;;;;;30.25;58.44;100612.52;106803;1257;63134;-91
2023/05/24 07:23:05;;;;;;;9.40;8.40;;;;;;;29.92;60.49;100617.52;107360;1256;71698;-93
2023/05/24 07:25:48;;;;;;;14.10;8.70;;;;;;;29.33;62.65;100616.95;108235;1263;59420;-92
2023/05/24 07:40:11;;;;;;;13.20;10.90;;;;;;;29.15;64.51;100618.06;106225;1282;613202;31
2023/05/24 07:43:16;;;;;;;13.60;12.10;;;;;;;28.70;68.82;100616.84;102297;1276;4266541;-89
2023/05/24 07:46:12;;;;;;;14.60;13.20;;;;;;;28.21;72.34;100619.39;105495;1277;60978;-92
2023/05/24 07:48:40;;;;;;;15.40;12.80;;;;;;;27.80;76.14;100623.23;105257;1276;72670;-91
2023/05/24 07:51:08;;;;;;;15.80;11.60;;;;;;;27.47;78.55;100627.63;105417;1278;62976;-92
2023/05/24 07:53:37;;;;;;;14.80;12.00;;;;;;;27.09;81.26;100619.84;105697;1276;72750;-88
2023/05/24 07:56:06;;;;;;;13.70;12.30;;;;;;;26.85;84.46;100618.13;106082;1281;60086;-94
2023/05/24 07:58:36;;;;;;;15.70;12.50;;;;;;;26.79;86.24;100618.38;106664;1280;58869;-92
2023/05/24 08:01:07;;;;;;;16.50;14.80;;;;;;;26.84;86.63;100612.52;106565;1269;70987;-92
2023/05/24 08:03:39;;;;;;;15.70;12.60;;;;;;;27.02;87.23;100610.79;108113;1268;63991;-92
2023/05/24 08:25:35;;;;;;;7.70;6.70;;;;;;;30.61;63.30;100608.51;104794;1285;614883;-92
2023/05/24 08:28:04;;;;;;;13.60;8.90;;;;;;;31.03;55.32;100607.01;105897;1271;135290;-88
2023/05/24 08:30:34;;;;;;;8.70;5.60;;;;;;;30.67;56.68;100597.55;106840;1265;58909;-93
2023/05/24 08:33:21;;;;;;;6.70;5.00;;;;;;;30.18;59.61;100601.45;107219;1253;72381;-94
2023/05/24 08:35:50;;;;;;;6.70;5.30;;;;;;;29.53;63.58;100593.82;106948;1259;64330;-89
2023/05/24 08:38:19;;;;;;;7.50;6.00;;;;;;;29.01;66.92;100593.18;107076;1253;72702;-91
2023/05/24 08:40:47;;;;;;;48.50;43.70;;;;;;;28.56;72.12;100583.02;107689;1253;59369;-92
2023/05/24 08:43:14;;;;;;;22.70;19.40;;;;;;;28.29;75.80;100588.70;107920;1253;59260;-88
2023/05/24 08:45:41;;;;;;;14.60;11.50;;;;;;;28.10;77.87;100592.33;108556;1253;70812;-90
2023/05/24 08:48:14;;;;;;;9.80;7.90;;;;;;;28.12;78.99;100591.32;108111;1253;63746;-93
2023/05/24 08:50:44;;;;;;;7.70;6.70;;;;;;;28.05;78.62;100592.11;107187;1253;73018;-94
2023/05/24 08:53:19;;;;;;;7.80;6.50;;;;;;;28.16;79.60;100591.86;109253;1253;60100;-89
2023/05/24 08:56:04;;;;;;;12.80;7.70;;;;;;;28.11;79.68;100591.78;107684;1257;61575;-94
2023/05/24 08:58:36;;;;;;;10.00;8.10;;;;;;;27.97;80.03;100603.27;107370;1258;71609;-94
2023/05/24 09:01:06;;;;;;;10.70;6.80;;;;;;;27.74;81.64;100600.58;107555;1257;62976;-92
2023/05/24 09:03:35;;;;;;;9.40;6.10;;;;;;;27.58;82.85;100598.98;107487;1256;72085;-92
2023/05/24 09:06:04;;;;;;;8.00;5.90;;;;;;;27.37;83.95;100592.46;107391;1257;59618;-91
2023/05/24 09:08:34;;;;;;;7.50;6.70;;;;;;;27.12;85.89;100586.48;107334;1261;60338;-92
2023/05/24 09:11:02;;;;;;;7.80;6.90;;;;;;;26.98;86.75;100586.16;107019;1262;74351;-91
2023/05/24 09:13:31;;;;;;;8.30;5.80;;;;;;;26.79;87.20;100581.94;107080;1259;63868;-94
2023/05/24 09:15:58;;;;;;;8.30;6.40;;;;;;;26.64;86.85;100588.11;106939;1260;71634;-92
2023/05/24 09:18:26;;;;;;;6.10;5.60;;;;;;;26.51;87.53;100585.37;107719;1257;60266;-91
2023/05/24 09:20:54;;;;;;;11.20;5.50;;;;;;;26.53;88.15;100584.80;107025;1258;59587;-91
2023/05/24 09:23:25;;;;;;;6.80;5.70;;;;;;;26.74;88.36;100580.46;106941;1265;71748;-94
2023/05/24 09:25:55;;;;;;;5.70;4.50;;;;;;;26.95;86.12;100579.73;107077;1258;62697;-93
2023/05/24 09:28:23;;;;;;;8.10;4.80;;;;;;;27.12;84.41;100581.74;108024;1257;75581;-91
2023/05/24 09:30:58;;;;;;;7.90;4.40;;;;;;;27.26;74.59;100583.77;108728;1255;59611;-91
2023/05/24 09:33:50;;;;;;;11.40;5.10;;;;;;;27.58;65.57;100582.68;109186;1255;62451;-91
2023/05/24 09:36:17;;;;;;;7.00;4.30;;;;;;;27.93;58.99;100585.18;108229;1256;71733;-90
2023/05/24 09:38:45;;;;;;;12.30;5.10;;;;;;;28.23;56.62;100581.20;107494;1256;64148;-90
2023/05/24 09:41:16;;;;;;;6.50;4.00;;;;;;;28.51;54.74;100581.49;108704;1256;73681;-92
2023/05/24 09:43:50;;;;;;;4.90;3.50;;;;;;;28.70;55.65;100579.38;108480;1256;59603;-91
2023/05/24 09:46:20;;;;;;;9.10;5.70;;;;;;;28.77;55.49;100574.91;109352;1255;59745;-89
2023/05/24 09:48:56;;;;;;;7.60;5.00;;;;;;;28.92;56.15;100569.00;109533;1256;72946;-90
2023/05/24 09:51:38;;;;;;;12.50;5.50;;;;;;;29.08;56.90;100573.80;109374;1255;61937;-92
2023/05/24 09:54:08;;;;;;;15.50;10.10;;;;;;;29.07;55.73;100574.46;108886;1262;71720;-92
2023/05/24 09:56:49;;;;;;;7.40;4.30;;;;;;;29.25;57.18;100585.70;107728;1256;59560;-93
2023/05/24 12:40:22;;;;;;;9.90;3.90;;;;;;;24.51;86.19;100570.11;104241;1290;616119;-88
2023/05/24 12:43:48;;;;;;;13.10;5.10;;;;;;;24.38;86.31;100575.29;106088;1272;59678;-89
2023/05/24 12:46:57;;;;;;;9.50;4.20;;;;;;;24.36;86.15;100575.95;107721;1265;59104;-89
2023/05/24 12:49:57;;;;;;;9.10;3.60;;;;;;;24.30;85.37;100570.70;108353;1266;71499;-89
2023/05/24 12:52:26;;;;;;;11.80;4.30;;;;;;;24.27;86.07;100574.98;108024;1263;626368;-87
2023/05/24 12:59:51;;;;;;;9.30;5.50;;;;;;;24.09;88.70;100565.77;107866;1265;61043;-89
2023/05/24 13:06:30;;;;;;;8.30;4.70;;;;;;;23.97;90.33;100559.63;107898;1264;70897;-89
2023/05/24 13:09:21;;;;;;;8.40;4.10;;;;;;;23.91;90.81;100564.60;107990;1265;62556;-93
2023/05/24 13:11:53;;;;;;;10.10;5.00;;;;;;;23.90;91.06;100566.82;107880;1265;71524;-93
2023/05/24 13:14:33;;;;;;;8.90;4.80;;;;;;;23.89;91.46;100567.33;108480;1265;60578;-91
2023/05/24 13:17:01;;;;;;;8.10;4.00;;;;;;;23.86;90.82;100568.40;108727;1265;60799;-90
2023/05/24 13:19:56;;;;;;;8.30;4.40;;;;;;;23.82;90.49;100574.09;108596;1262;73493;-89
2023/05/24 13:22:49;;;;;;;7.70;4.20;;;;;;;23.72;90.55;100570.16;108766;1264;65273;-90
2023/05/24 13:46:35;;;;;;;11.20;4.20;;;;;;;23.88;88.08;100569.33;106560;1291;62295;-89
2023/05/24 13:54:36;;;;;;;7.20;2.30;;;;;;;23.88;88.36;100580.16;106883;1269;59543;-93
2023/05/24 13:57:42;;;;;;;7.50;3.60;;;;;;;23.90;88.22;100577.48;106866;1268;59191;-90
2023/05/24 14:00:52;;;;;;;7.50;3.20;;;;;;;23.93;90.57;100571.39;107799;1275;73234;-91
2023/05/24 14:03:41;;;;;;;8.60;2.70;;;;;;;23.97;90.82;100575.17;106022;1276;65313;-91
2023/05/24 14:21:52;;;;;;;8.20;2.90;;;;;;;24.61;87.47;100583.85;108647;1266;179762;-93
2023/05/24 14:30:10;;;;;;;14.20;6.10;;;;;;;24.36;90.60;100571.27;108808;1260;71899;-92
2023/05/24 14:33:14;;;;;;;10.10;5.80;;;;;;;24.26;91.49;100573.52;107412;1259;62728;-96
2023/05/24 14:48:40;;;;;;;14.00;5.80;;;;;;;23.97;93.58;100560.17;106724;1283;612907;-91
2023/05/24 14:56:57;;;;;;;19.50;7.10;;;;;;;23.56;95.94;100560.61;107605;1273;64191;-90
2023/05/24 15:00:36;;;;;;;12.10;6.00;;;;;;;23.45;96.43;100568.41;108121;1273;72695;-91
2023/05/24 15:03:43;;;;;;;16.30;6.60;;;;;;;23.34;96.92;100572.59;105632;1273;59347;-90
2023/05/24 15:06:12;;;;;;;9.60;5.00;;;;;;;23.28;97.39;100570.31;105813;1273;59406;-89
2023/05/24 15:08:44;;;;;;;11.10;5.00;;;;;;;23.20;97.31;100568.86;106501;1269;72613;-89
2023/05/24 15:11:12;;;;;;;11.90;6.20;;;;;;;23.17;97.61;100566.56;106570;1269;61662;-89
2023/05/24 15:13:40;;;;;;;15.10;6.10;;;;;;;23.12;97.67;100566.55;106109;1269;71443;-90
2023/05/24 15:16:08;;;;;;;12.00;6.70;;;;;;;23.08;97.93;100573.06;106335;1269;59326;-90
2023/05/24 15:18:36;;;;;;;11.80;5.50;;;;;;;23.04;98.14;100567.90;106169;1269;60743;-90
2023/05/24 15:21:03;;;;;;;14.00;6.00;;;;;;;22.99;98.24;100570.73;105943;1273;71899;-90
2023/05/24 15:23:30;;;;;;;17.50;6.70;;;;;;;22.94;98.50;100571.10;106634;1265;63821;-90
2023/05/24 15:25:58;;;;;;;13.00;6.00;;;;;;;22.90;98.82;100575.66;106643;1262;70413;-89
2023/05/24 15:28:28;;;;;;;17.00;6.50;;;;;;;22.88;99.12;100577.02;106078;1263;60956;-88
2023/05/24 15:30:55;;;;;;;10.20;5.20;;;;;;;22.87;99.79;100582.13;106425;1262;60668;-90
2023/05/24 15:33:25;;;;;;;9.20;4.60;;;;;;;22.86;100.00;100580.39;105953;1266;73118;-89
2023/05/24 15:35:53;;;;;;;11.60;4.70;;;;;;;22.85;100.00;100580.52;106058;1263;63390;-89
2023/05/24 15:38:29;;;;;;;9.10;4.60;;;;;;;22.82;100.00;100572.98;106683;1257;71743;-90
2023/05/24 15:40:57;;;;;;;6.50;3.90;;;;;;;22.84;100.00;100571.17;107283;1253;59707;-90
2023/05/24 15:43:25;;;;;;;7.70;3.70;;;;;;;22.85;100.00;100568.25;107192;1261;59701;-87
2023/05/24 15:45:53;;;;;;;11.30;4.70;;;;;;;22.85;100.00;100567.09;107581;1254;71843;-90
2023/05/24 15:48:21;;;;;;;11.20;5.00;;;;;;;22.87;100.00;100571.56;108532;1260;62489;-90
2023/05/24 15:50:53;;;;;;;12.20;4.90;;;;;;;22.85;100.00;100568.19;108881;1257;71373;-90
2023/05/24 15:53:43;;;;;;;6.60;4.40;;;;;;;22.80;100.00;100560.93;109346;1257;58856;-86
2023/05/24 15:56:12;;;;;;;10.50;5.30;;;;;;;22.78;100.00;100560.50;108737;1259;59349;-91
2023/05/24 15:58:42;;;;;;;18.10;6.90;;;;;;;22.75;100.00;100559.80;106631;1260;73034;-89
2023/05/24 16:01:10;;;;;;;14.40;7.80;;;;;;;22.72;100.00;100554.34;106785;1263;63975;-88
2023/05/24 16:03:48;;;;;;;10.20;6.10;;;;;;;22.67;99.92;100555.63;106201;1259;72794;-89
2023/05/24 16:06:16;;;;;;;9.20;5.80;;;;;;;22.61;99.11;100557.53;107108;1263;60677;-89
2023/05/24 16:08:48;;;;;;;15.80;6.70;;;;;;;22.55;99.17;100555.17;107597;1259;59295;-90
2023/05/24 16:11:22;;;;;;;14.30;7.30;;;;;;;22.49;99.16;100560.99;108225;1258;73786;-90
2023/05/24 16:14:31;;;;;;;10.30;6.80;;;;;;;22.41;99.11;100557.41;108820;1259;66770;-90
2023/05/24 16:16:58;;;;;;;17.60;9.80;;;;;;;22.39;99.29;100559.05;109009;1258;71386;-87
2023/05/24 16:19:29;;;;;;;15.10;7.00;;;;;;;22.36;98.93;100558.38;107881;1256;59728;-89
2023/05/24 16:21:58;;;;;;;13.70;6.60;;;;;;;22.31;99.12;100562.40;106980;1256;59631;-89